sensor_id;sensor_type;location;lat;lon;timestamp;P1;durP1;ratioP1;P2;durP2;ratioP2
15177;SDS011;7689;53.612;-2.416;2022-10-30T00:00:04;9.77;;;4.72;;
15177;SDS011;7689;53.612;-2.416;2022-10-30T00:02:30;13.48;;;4.35;;
15177;SDS011;7689;53.612;-2.416;2022-10-30T00:04:55;11.40;;;4.65;;
15177;SDS011;7689;53.612;-2.416;2022-10-30T00:07:21;13.63;;;4.75;;
15177;SDS011;7689;53.612;-2.416;2022-10-30T00:09:46;15.82;;;4.60;;
15177;SDS011;7689;53.612;-2.416;2022-10-30T00:12:12;12.75;;;5.05;;
15177;SDS011;7689;53.612;-2.416;2022-10-30T00:14:38;13.70;;;4.50;;
15177;SDS011;7689;53.612;-2.416;2022-10-30T00:17:03;11.93;;;4.50;;
15177;SDS011;7689;53.612;-2.416;2022-10-30T00:19:29;14.30;;;4.93;;
15177;SDS011;7689;53.612;-2.416;2022-10-30T00:21:55;9.18;;;4.63;;
15177;SDS011;7689;53.612;-2.416;2022-10-30T00:24:21;10.40;;;4.72;;
15177;SDS011;7689;53.612;-2.416;2022-10-30T00:26:47;10.18;;;4.45;;
15177;SDS011;7689;53.612;-2.416;2022-10-30T00:29:13;11.98;;;4.10;;
15177;SDS011;7689;53.612;-2.416;2022-10-30T00:31:40;15.20;;;4.95;;
15177;SDS011;7689;53.612;-2.416;2022-10-30T00:34:05;18.95;;;5.20;;
15177;SDS011;7689;53.612;-2.416;2022-10-30T00:36:31;13.73;;;4.15;;
15177;SDS011;7689;53.612;-2.416;2022-10-30T00:38:57;12.90;;;4.72;;
15177;SDS011;7689;53.612;-2.416;2022-10-30T00:41:23;10.50;;;4.32;;
15177;SDS011;7689;53.612;-2.416;2022-10-30T00:43:49;11.95;;;4.55;;
15177;SDS011;7689;53.612;-2.416;2022-10-30T00:46:17;12.82;;;4.82;;
15177;SDS011;7689;53.612;-2.416;2022-10-30T00:48:45;13.98;;;4.43;;
15177;SDS011;7689;53.612;-2.416;2022-10-30T00:51:16;15.93;;;4.95;;
15177;SDS011;7689;53.612;-2.416;2022-10-30T00:53:44;10.98;;;4.00;;
15177;SDS011;7689;53.612;-2.416;2022-10-30T00:56:12;11.40;;;4.00;;
15177;SDS011;7689;53.612;-2.416;2022-10-30T00:58:43;14.45;;;4.35;;
15177;SDS011;7689;53.612;-2.416;2022-10-30T01:01:15;14.98;;;4.20;;
15177;SDS011;7689;53.612;-2.416;2022-10-30T01:03:43;14.38;;;3.95;;
15177;SDS011;7689;53.612;-2.416;2022-10-30T01:06:11;17.58;;;4.60;;
15177;SDS011;7689;53.612;-2.416;2022-10-30T01:08:39;14.40;;;4.25;;
15177;SDS011;7689;53.612;-2.416;2022-10-30T01:11:06;17.02;;;4.68;;
15177;SDS011;7689;53.612;-2.416;2022-10-30T01:13:33;10.45;;;4.20;;
15177;SDS011;7689;53.612;-2.416;2022-10-30T01:16:22;13.30;;;4.75;;
15177;SDS011;7689;53.612;-2.416;2022-10-30T01:27:39;13.50;;;4.68;;
15177;SDS011;7689;53.612;-2.416;2022-10-30T01:33:07;14.13;;;4.57;;
15177;SDS011;7689;53.612;-2.416;2022-10-30T01:38:27;13.27;;;3.90;;
15177;SDS011;7689;53.612;-2.416;2022-10-30T01:40:58;16.23;;;4.47;;
15177;SDS011;7689;53.612;-2.416;2022-10-30T01:43:24;17.75;;;3.83;;
15177;SDS011;7689;53.612;-2.416;2022-10-30T01:51:15;15.25;;;4.47;;
15177;SDS011;7689;53.612;-2.416;2022-10-30T01:53:59;12.35;;;4.20;;
15177;SDS011;7689;53.612;-2.416;2022-10-30T01:59:50;15.70;;;4.07;;
15177;SDS011;7689;53.612;-2.416;2022-10-30T02:02:24;14.20;;;3.90;;
15177;SDS011;7689;53.612;-2.416;2022-10-30T02:04:50;17.65;;;4.68;;
15177;SDS011;7689;53.612;-2.416;2022-10-30T02:07:16;19.90;;;4.37;;
15177;SDS011;7689;53.612;-2.416;2022-10-30T02:09:42;12.83;;;4.27;;
15177;SDS011;7689;53.612;-2.416;2022-10-30T02:12:08;13.27;;;4.90;;
15177;SDS011;7689;53.612;-2.416;2022-10-30T02:14:38;13.02;;;5.07;;
15177;SDS011;7689;53.612;-2.416;2022-10-30T02:17:06;18.33;;;4.67;;
15177;SDS011;7689;53.612;-2.416;2022-10-30T02:19:33;25.53;;;5.10;;
15177;SDS011;7689;53.612;-2.416;2022-10-30T02:21:59;17.53;;;5.10;;
15177;SDS011;7689;53.612;-2.416;2022-10-30T02:24:25;10.10;;;4.07;;
15177;SDS011;7689;53.612;-2.416;2022-10-30T02:26:51;17.57;;;4.40;;
15177;SDS011;7689;53.612;-2.416;2022-10-30T02:29:16;16.40;;;4.50;;
15177;SDS011;7689;53.612;-2.416;2022-10-30T02:31:44;16.30;;;3.93;;
15177;SDS011;7689;53.612;-2.416;2022-10-30T02:34:10;18.20;;;4.47;;
15177;SDS011;7689;53.612;-2.416;2022-10-30T02:36:36;9.20;;;3.43;;
15177;SDS011;7689;53.612;-2.416;2022-10-30T02:39:02;15.27;;;4.47;;
15177;SDS011;7689;53.612;-2.416;2022-10-30T02:41:28;15.97;;;4.67;;
15177;SDS011;7689;53.612;-2.416;2022-10-30T02:43:54;21.53;;;4.73;;
15177;SDS011;7689;53.612;-2.416;2022-10-30T02:46:19;16.27;;;4.10;;
15177;SDS011;7689;53.612;-2.416;2022-10-30T02:48:46;13.80;;;3.73;;
15177;SDS011;7689;53.612;-2.416;2022-10-30T02:51:12;18.70;;;3.80;;
15177;SDS011;7689;53.612;-2.416;2022-10-30T02:53:37;14.33;;;3.77;;
15177;SDS011;7689;53.612;-2.416;2022-10-30T02:56:04;12.53;;;3.60;;
15177;SDS011;7689;53.612;-2.416;2022-10-30T02:58:31;11.63;;;4.00;;
15177;SDS011;7689;53.612;-2.416;2022-10-30T03:00:57;17.30;;;3.90;;
15177;SDS011;7689;53.612;-2.416;2022-10-30T03:03:28;21.33;;;4.00;;
15177;SDS011;7689;53.612;-2.416;2022-10-30T03:05:54;14.40;;;3.27;;
15177;SDS011;7689;53.612;-2.416;2022-10-30T03:08:19;15.50;;;3.87;;
15177;SDS011;7689;53.612;-2.416;2022-10-30T03:10:45;10.07;;;3.43;;
15177;SDS011;7689;53.612;-2.416;2022-10-30T03:13:10;12.33;;;3.40;;
15177;SDS011;7689;53.612;-2.416;2022-10-30T03:15:36;17.10;;;4.07;;
15177;SDS011;7689;53.612;-2.416;2022-10-30T03:18:02;14.43;;;3.77;;
15177;SDS011;7689;53.612;-2.416;2022-10-30T03:20:27;18.80;;;3.70;;
15177;SDS011;7689;53.612;-2.416;2022-10-30T03:22:53;16.00;;;3.40;;
15177;SDS011;7689;53.612;-2.416;2022-10-30T03:25:19;17.60;;;4.10;;
15177;SDS011;7689;53.612;-2.416;2022-10-30T03:27:47;19.50;;;4.13;;
15177;SDS011;7689;53.612;-2.416;2022-10-30T03:30:13;10.80;;;3.60;;
15177;SDS011;7689;53.612;-2.416;2022-10-30T03:32:39;10.50;;;3.80;;
15177;SDS011;7689;53.612;-2.416;2022-10-30T03:35:04;14.65;;;4.30;;
15177;SDS011;7689;53.612;-2.416;2022-10-30T03:37:30;14.63;;;4.20;;
15177;SDS011;7689;53.612;-2.416;2022-10-30T03:39:56;11.90;;;3.53;;
15177;SDS011;7689;53.612;-2.416;2022-10-30T03:42:21;12.60;;;3.70;;
15177;SDS011;7689;53.612;-2.416;2022-10-30T03:44:47;16.88;;;3.85;;
15177;SDS011;7689;53.612;-2.416;2022-10-30T03:47:12;16.73;;;3.67;;
15177;SDS011;7689;53.612;-2.416;2022-10-30T03:49:38;17.23;;;4.27;;
15177;SDS011;7689;53.612;-2.416;2022-10-30T03:52:04;13.83;;;3.80;;
15177;SDS011;7689;53.612;-2.416;2022-10-30T03:54:29;17.40;;;4.57;;
15177;SDS011;7689;53.612;-2.416;2022-10-30T03:56:55;14.07;;;3.37;;
15177;SDS011;7689;53.612;-2.416;2022-10-30T03:59:20;11.67;;;3.43;;
15177;SDS011;7689;53.612;-2.416;2022-10-30T04:01:46;11.83;;;3.40;;
15177;SDS011;7689;53.612;-2.416;2022-10-30T04:04:12;11.93;;;3.50;;
15177;SDS011;7689;53.612;-2.416;2022-10-30T04:06:37;15.87;;;4.10;;
15177;SDS011;7689;53.612;-2.416;2022-10-30T04:09:03;16.60;;;3.10;;
15177;SDS011;7689;53.612;-2.416;2022-10-30T04:11:28;16.57;;;4.00;;
15177;SDS011;7689;53.612;-2.416;2022-10-30T04:13:54;13.73;;;3.97;;
15177;SDS011;7689;53.612;-2.416;2022-10-30T04:16:20;14.67;;;3.87;;
15177;SDS011;7689;53.612;-2.416;2022-10-30T04:18:45;13.73;;;3.47;;
15177;SDS011;7689;53.612;-2.416;2022-10-30T04:21:11;14.30;;;3.17;;
15177;SDS011;7689;53.612;-2.416;2022-10-30T04:23:36;14.40;;;3.83;;
15177;SDS011;7689;53.612;-2.416;2022-10-30T04:26:02;20.47;;;3.90;;
15177;SDS011;7689;53.612;-2.416;2022-10-30T04:28:28;12.70;;;3.23;;
15177;SDS011;7689;53.612;-2.416;2022-10-30T04:30:53;12.30;;;3.47;;
15177;SDS011;7689;53.612;-2.416;2022-10-30T04:33:20;13.53;;;3.27;;
15177;SDS011;7689;53.612;-2.416;2022-10-30T04:35:46;14.07;;;3.83;;
15177;SDS011;7689;53.612;-2.416;2022-10-30T04:38:12;14.77;;;3.90;;
15177;SDS011;7689;53.612;-2.416;2022-10-30T04:40:41;13.07;;;3.33;;
15177;SDS011;7689;53.612;-2.416;2022-10-30T04:43:08;13.30;;;3.67;;
15177;SDS011;7689;53.612;-2.416;2022-10-30T04:45:34;15.43;;;3.07;;
15177;SDS011;7689;53.612;-2.416;2022-10-30T04:48:01;22.53;;;4.10;;
15177;SDS011;7689;53.612;-2.416;2022-10-30T04:50:30;15.93;;;3.60;;
15177;SDS011;7689;53.612;-2.416;2022-10-30T04:53:00;14.47;;;3.17;;
15177;SDS011;7689;53.612;-2.416;2022-10-30T04:55:30;25.20;;;5.03;;
15177;SDS011;7689;53.612;-2.416;2022-10-30T04:57:58;16.37;;;3.87;;
15177;SDS011;7689;53.612;-2.416;2022-10-30T05:00:27;17.07;;;4.00;;
15177;SDS011;7689;53.612;-2.416;2022-10-30T05:02:53;13.10;;;4.30;;
15177;SDS011;7689;53.612;-2.416;2022-10-30T05:05:19;19.77;;;3.63;;
15177;SDS011;7689;53.612;-2.416;2022-10-30T05:07:45;15.83;;;4.30;;
15177;SDS011;7689;53.612;-2.416;2022-10-30T05:10:11;21.33;;;3.57;;
15177;SDS011;7689;53.612;-2.416;2022-10-30T05:12:42;13.87;;;3.57;;
15177;SDS011;7689;53.612;-2.416;2022-10-30T05:15:10;14.97;;;3.73;;
15177;SDS011;7689;53.612;-2.416;2022-10-30T05:17:36;15.00;;;3.30;;
15177;SDS011;7689;53.612;-2.416;2022-10-30T05:20:02;12.30;;;3.90;;
15177;SDS011;7689;53.612;-2.416;2022-10-30T05:22:29;20.90;;;4.07;;
15177;SDS011;7689;53.612;-2.416;2022-10-30T05:24:54;17.80;;;3.47;;
15177;SDS011;7689;53.612;-2.416;2022-10-30T05:27:20;13.47;;;3.57;;
15177;SDS011;7689;53.612;-2.416;2022-10-30T05:29:46;16.57;;;3.23;;
15177;SDS011;7689;53.612;-2.416;2022-10-30T05:32:11;15.77;;;3.87;;
15177;SDS011;7689;53.612;-2.416;2022-10-30T05:34:37;20.80;;;4.70;;
15177;SDS011;7689;53.612;-2.416;2022-10-30T05:37:03;10.80;;;3.40;;
15177;SDS011;7689;53.612;-2.416;2022-10-30T05:39:28;12.03;;;3.83;;
15177;SDS011;7689;53.612;-2.416;2022-10-30T05:41:54;14.90;;;4.27;;
15177;SDS011;7689;53.612;-2.416;2022-10-30T05:44:19;12.50;;;4.07;;
15177;SDS011;7689;53.612;-2.416;2022-10-30T05:46:45;18.07;;;5.27;;
15177;SDS011;7689;53.612;-2.416;2022-10-30T05:49:11;19.47;;;4.43;;
15177;SDS011;7689;53.612;-2.416;2022-10-30T05:51:36;16.77;;;4.70;;
15177;SDS011;7689;53.612;-2.416;2022-10-30T05:54:03;11.83;;;3.67;;
15177;SDS011;7689;53.612;-2.416;2022-10-30T05:56:29;12.57;;;3.67;;
15177;SDS011;7689;53.612;-2.416;2022-10-30T05:58:55;12.23;;;3.95;;
15177;SDS011;7689;53.612;-2.416;2022-10-30T06:01:20;7.43;;;3.40;;
15177;SDS011;7689;53.612;-2.416;2022-10-30T06:03:46;18.03;;;3.30;;
15177;SDS011;7689;53.612;-2.416;2022-10-30T06:06:11;19.40;;;3.97;;
15177;SDS011;7689;53.612;-2.416;2022-10-30T06:08:37;17.43;;;3.70;;
15177;SDS011;7689;53.612;-2.416;2022-10-30T06:11:03;14.33;;;4.07;;
15177;SDS011;7689;53.612;-2.416;2022-10-30T06:13:28;21.00;;;3.67;;
15177;SDS011;7689;53.612;-2.416;2022-10-30T06:15:54;13.23;;;3.20;;
15177;SDS011;7689;53.612;-2.416;2022-10-30T06:18:20;18.52;;;4.10;;
15177;SDS011;7689;53.612;-2.416;2022-10-30T06:20:46;19.00;;;3.83;;
15177;SDS011;7689;53.612;-2.416;2022-10-30T06:23:12;17.83;;;4.07;;
15177;SDS011;7689;53.612;-2.416;2022-10-30T06:25:38;17.15;;;3.58;;
15177;SDS011;7689;53.612;-2.416;2022-10-30T06:28:04;11.23;;;3.25;;
15177;SDS011;7689;53.612;-2.416;2022-10-30T06:30:30;13.93;;;3.83;;
15177;SDS011;7689;53.612;-2.416;2022-10-30T06:32:56;16.63;;;3.40;;
15177;SDS011;7689;53.612;-2.416;2022-10-30T06:35:26;9.38;;;3.53;;
15177;SDS011;7689;53.612;-2.416;2022-10-30T06:37:53;13.13;;;3.13;;
15177;SDS011;7689;53.612;-2.416;2022-10-30T06:40:20;15.45;;;3.80;;
15177;SDS011;7689;53.612;-2.416;2022-10-30T06:42:51;20.65;;;4.72;;
15177;SDS011;7689;53.612;-2.416;2022-10-30T06:45:18;10.88;;;2.97;;
15177;SDS011;7689;53.612;-2.416;2022-10-30T06:47:44;13.50;;;3.40;;
15177;SDS011;7689;53.612;-2.416;2022-10-30T06:50:11;12.13;;;3.03;;
15177;SDS011;7689;53.612;-2.416;2022-10-30T06:52:40;12.45;;;2.75;;
15177;SDS011;7689;53.612;-2.416;2022-10-30T06:55:06;10.73;;;3.08;;
15177;SDS011;7689;53.612;-2.416;2022-10-30T06:57:33;13.55;;;3.15;;
15177;SDS011;7689;53.612;-2.416;2022-10-30T06:59:59;9.97;;;3.03;;
15177;SDS011;7689;53.612;-2.416;2022-10-30T07:02:24;10.80;;;3.05;;
15177;SDS011;7689;53.612;-2.416;2022-10-30T07:04:50;11.90;;;3.73;;
15177;SDS011;7689;53.612;-2.416;2022-10-30T07:07:16;12.75;;;3.67;;
15177;SDS011;7689;53.612;-2.416;2022-10-30T07:09:42;11.30;;;3.30;;
15177;SDS011;7689;53.612;-2.416;2022-10-30T07:12:09;19.67;;;3.47;;
15177;SDS011;7689;53.612;-2.416;2022-10-30T07:14:35;16.80;;;3.60;;
15177;SDS011;7689;53.612;-2.416;2022-10-30T07:17:01;13.63;;;3.57;;
15177;SDS011;7689;53.612;-2.416;2022-10-30T07:19:26;11.33;;;3.40;;
15177;SDS011;7689;53.612;-2.416;2022-10-30T07:21:52;15.93;;;3.50;;
15177;SDS011;7689;53.612;-2.416;2022-10-30T07:24:18;17.77;;;3.70;;
15177;SDS011;7689;53.612;-2.416;2022-10-30T07:26:43;14.63;;;3.10;;
15177;SDS011;7689;53.612;-2.416;2022-10-30T07:29:09;15.90;;;3.90;;
15177;SDS011;7689;53.612;-2.416;2022-10-30T07:31:35;14.63;;;3.67;;
15177;SDS011;7689;53.612;-2.416;2022-10-30T07:34:00;13.80;;;3.23;;
15177;SDS011;7689;53.612;-2.416;2022-10-30T07:36:26;19.53;;;3.67;;
15177;SDS011;7689;53.612;-2.416;2022-10-30T07:38:52;17.33;;;3.88;;
15177;SDS011;7689;53.612;-2.416;2022-10-30T07:41:17;16.90;;;4.17;;
15177;SDS011;7689;53.612;-2.416;2022-10-30T07:43:44;10.87;;;3.43;;
15177;SDS011;7689;53.612;-2.416;2022-10-30T07:46:10;8.83;;;3.13;;
15177;SDS011;7689;53.612;-2.416;2022-10-30T07:48:35;16.57;;;3.97;;
15177;SDS011;7689;53.612;-2.416;2022-10-30T07:51:02;14.90;;;3.80;;
15177;SDS011;7689;53.612;-2.416;2022-10-30T07:53:28;20.63;;;4.40;;
15177;SDS011;7689;53.612;-2.416;2022-10-30T07:55:54;13.63;;;3.27;;
15177;SDS011;7689;53.612;-2.416;2022-10-30T07:58:20;14.63;;;4.27;;
15177;SDS011;7689;53.612;-2.416;2022-10-30T08:00:45;20.13;;;3.60;;
15177;SDS011;7689;53.612;-2.416;2022-10-30T08:03:12;12.63;;;3.47;;
15177;SDS011;7689;53.612;-2.416;2022-10-30T08:05:37;22.73;;;4.27;;
15177;SDS011;7689;53.612;-2.416;2022-10-30T08:08:03;19.53;;;4.03;;
15177;SDS011;7689;53.612;-2.416;2022-10-30T08:10:29;12.57;;;3.90;;
15177;SDS011;7689;53.612;-2.416;2022-10-30T08:12:55;14.67;;;3.50;;
15177;SDS011;7689;53.612;-2.416;2022-10-30T08:15:21;19.73;;;3.90;;
15177;SDS011;7689;53.612;-2.416;2022-10-30T08:17:48;16.97;;;4.20;;
15177;SDS011;7689;53.612;-2.416;2022-10-30T08:20:15;20.97;;;4.23;;
15177;SDS011;7689;53.612;-2.416;2022-10-30T08:22:46;16.17;;;3.33;;
15177;SDS011;7689;53.612;-2.416;2022-10-30T08:25:13;11.00;;;3.33;;
15177;SDS011;7689;53.612;-2.416;2022-10-30T08:27:47;16.67;;;3.27;;
15177;SDS011;7689;53.612;-2.416;2022-10-30T08:30:28;14.10;;;3.57;;
15177;SDS011;7689;53.612;-2.416;2022-10-30T08:32:55;21.97;;;3.67;;
15177;SDS011;7689;53.612;-2.416;2022-10-30T08:35:22;10.93;;;4.07;;
15177;SDS011;7689;53.612;-2.416;2022-10-30T08:37:48;16.25;;;2.63;;
15177;SDS011;7689;53.612;-2.416;2022-10-30T08:40:16;18.90;;;3.80;;
15177;SDS011;7689;53.612;-2.416;2022-10-30T08:42:42;13.20;;;3.67;;
15177;SDS011;7689;53.612;-2.416;2022-10-30T08:45:13;11.20;;;3.13;;
15177;SDS011;7689;53.612;-2.416;2022-10-30T08:47:39;15.63;;;3.47;;
15177;SDS011;7689;53.612;-2.416;2022-10-30T08:50:05;15.97;;;3.43;;
15177;SDS011;7689;53.612;-2.416;2022-10-30T08:52:30;15.23;;;3.43;;
15177;SDS011;7689;53.612;-2.416;2022-10-30T08:54:56;10.10;;;3.13;;
15177;SDS011;7689;53.612;-2.416;2022-10-30T08:57:22;12.00;;;3.17;;
15177;SDS011;7689;53.612;-2.416;2022-10-30T08:59:47;16.17;;;3.80;;
15177;SDS011;7689;53.612;-2.416;2022-10-30T09:02:13;11.10;;;3.28;;
15177;SDS011;7689;53.612;-2.416;2022-10-30T09:04:38;11.80;;;3.33;;
15177;SDS011;7689;53.612;-2.416;2022-10-30T09:07:04;16.88;;;3.50;;
15177;SDS011;7689;53.612;-2.416;2022-10-30T09:09:30;15.80;;;3.30;;
15177;SDS011;7689;53.612;-2.416;2022-10-30T09:11:55;11.23;;;3.67;;
15177;SDS011;7689;53.612;-2.416;2022-10-30T09:14:21;11.63;;;3.83;;
15177;SDS011;7689;53.612;-2.416;2022-10-30T09:16:46;16.13;;;3.33;;
15177;SDS011;7689;53.612;-2.416;2022-10-30T09:19:12;13.68;;;4.38;;
15177;SDS011;7689;53.612;-2.416;2022-10-30T09:21:38;14.07;;;3.30;;
15177;SDS011;7689;53.612;-2.416;2022-10-30T09:24:03;13.75;;;3.10;;
15177;SDS011;7689;53.612;-2.416;2022-10-30T09:26:29;13.98;;;3.22;;
15177;SDS011;7689;53.612;-2.416;2022-10-30T09:28:55;16.45;;;3.70;;
15177;SDS011;7689;53.612;-2.416;2022-10-30T09:31:20;10.27;;;3.35;;
15177;SDS011;7689;53.612;-2.416;2022-10-30T09:33:46;15.93;;;3.95;;
15177;SDS011;7689;53.612;-2.416;2022-10-30T09:36:11;13.88;;;2.97;;
15177;SDS011;7689;53.612;-2.416;2022-10-30T09:38:37;15.30;;;3.20;;
15177;SDS011;7689;53.612;-2.416;2022-10-30T09:43:51;12.70;;;3.25;;
15177;SDS011;7689;53.612;-2.416;2022-10-30T09:46:44;17.40;;;3.83;;
15177;SDS011;7689;53.612;-2.416;2022-10-30T09:49:29;10.30;;;3.40;;
15177;SDS011;7689;53.612;-2.416;2022-10-30T09:52:25;11.63;;;3.47;;
15177;SDS011;7689;53.612;-2.416;2022-10-30T10:00:28;12.98;;;3.47;;
15177;SDS011;7689;53.612;-2.416;2022-10-30T10:05:51;13.23;;;3.10;;
15177;SDS011;7689;53.612;-2.416;2022-10-30T10:08:22;13.38;;;3.60;;
15177;SDS011;7689;53.612;-2.416;2022-10-30T10:13:55;15.30;;;3.08;;
15177;SDS011;7689;53.612;-2.416;2022-10-30T10:16:23;13.68;;;2.90;;
15177;SDS011;7689;53.612;-2.416;2022-10-30T10:21:28;12.02;;;4.25;;
15177;SDS011;7689;53.612;-2.416;2022-10-30T10:23:59;9.45;;;2.78;;
15177;SDS011;7689;53.612;-2.416;2022-10-30T10:29:21;13.38;;;3.35;;
15177;SDS011;7689;53.612;-2.416;2022-10-30T10:37:51;42.08;;;6.15;;
15177;SDS011;7689;53.612;-2.416;2022-10-30T10:43:15;15.65;;;3.83;;
15177;SDS011;7689;53.612;-2.416;2022-10-30T10:45:58;11.75;;;3.63;;
15177;SDS011;7689;53.612;-2.416;2022-10-30T10:51:19;12.32;;;3.85;;
15177;SDS011;7689;53.612;-2.416;2022-10-30T10:56:28;11.32;;;5.05;;
15177;SDS011;7689;53.612;-2.416;2022-10-30T10:58:58;10.15;;;4.22;;
15177;SDS011;7689;53.612;-2.416;2022-10-30T11:01:37;12.27;;;3.53;;
15177;SDS011;7689;53.612;-2.416;2022-10-30T11:04:13;7.82;;;2.88;;
15177;SDS011;7689;53.612;-2.416;2022-10-30T11:06:45;9.85;;;2.85;;
15177;SDS011;7689;53.612;-2.416;2022-10-30T11:09:16;14.50;;;3.70;;
15177;SDS011;7689;53.612;-2.416;2022-10-30T11:11:44;12.52;;;2.78;;
15177;SDS011;7689;53.612;-2.416;2022-10-30T11:14:17;10.70;;;2.70;;
15177;SDS011;7689;53.612;-2.416;2022-10-30T11:19:39;10.90;;;2.85;;
15177;SDS011;7689;53.612;-2.416;2022-10-30T11:22:24;10.57;;;2.70;;
15177;SDS011;7689;53.612;-2.416;2022-10-30T11:24:52;12.25;;;3.08;;
15177;SDS011;7689;53.612;-2.416;2022-10-30T11:29:48;10.13;;;2.85;;
15177;SDS011;7689;53.612;-2.416;2022-10-30T11:32:18;8.60;;;2.88;;
15177;SDS011;7689;53.612;-2.416;2022-10-30T11:34:46;11.48;;;2.55;;
15177;SDS011;7689;53.612;-2.416;2022-10-30T11:37:29;9.60;;;2.47;;
15177;SDS011;7689;53.612;-2.416;2022-10-30T11:40:00;10.25;;;2.80;;
15177;SDS011;7689;53.612;-2.416;2022-10-30T11:42:29;11.98;;;3.15;;
15177;SDS011;7689;53.612;-2.416;2022-10-30T11:44:55;12.45;;;3.20;;
15177;SDS011;7689;53.612;-2.416;2022-10-30T11:47:25;10.82;;;2.83;;
15177;SDS011;7689;53.612;-2.416;2022-10-30T11:50:05;10.55;;;2.40;;
15177;SDS011;7689;53.612;-2.416;2022-10-30T11:52:59;8.35;;;2.45;;
15177;SDS011;7689;53.612;-2.416;2022-10-30T11:56:00;8.55;;;2.42;;
15177;SDS011;7689;53.612;-2.416;2022-10-30T11:58:41;7.57;;;2.47;;
15177;SDS011;7689;53.612;-2.416;2022-10-30T12:01:21;9.32;;;2.47;;
15177;SDS011;7689;53.612;-2.416;2022-10-30T12:03:52;7.97;;;2.78;;
15177;SDS011;7689;53.612;-2.416;2022-10-30T12:11:35;7.13;;;2.58;;
15177;SDS011;7689;53.612;-2.416;2022-10-30T12:14:02;8.85;;;2.67;;
15177;SDS011;7689;53.612;-2.416;2022-10-30T12:16:29;13.13;;;2.83;;
15177;SDS011;7689;53.612;-2.416;2022-10-30T12:19:00;4.78;;;2.22;;
15177;SDS011;7689;53.612;-2.416;2022-10-30T12:21:34;8.93;;;2.47;;
15177;SDS011;7689;53.612;-2.416;2022-10-30T12:24:05;10.98;;;2.80;;
15177;SDS011;7689;53.612;-2.416;2022-10-30T12:26:41;7.95;;;2.33;;
15177;SDS011;7689;53.612;-2.416;2022-10-30T12:29:16;7.68;;;2.40;;
15177;SDS011;7689;53.612;-2.416;2022-10-30T12:36:49;4.13;;;2.20;;
15177;SDS011;7689;53.612;-2.416;2022-10-30T12:41:58;11.35;;;2.63;;
15177;SDS011;7689;53.612;-2.416;2022-10-30T12:44:32;4.97;;;2.50;;
15177;SDS011;7689;53.612;-2.416;2022-10-30T12:53:05;10.00;;;2.78;;
15177;SDS011;7689;53.612;-2.416;2022-10-30T12:55:51;9.05;;;2.00;;
15177;SDS011;7689;53.612;-2.416;2022-10-30T12:58:43;6.82;;;2.65;;
15177;SDS011;7689;53.612;-2.416;2022-10-30T13:01:32;7.97;;;2.30;;
15177;SDS011;7689;53.612;-2.416;2022-10-30T13:04:09;7.32;;;2.40;;
15177;SDS011;7689;53.612;-2.416;2022-10-30T13:07:28;6.90;;;2.20;;
15177;SDS011;7689;53.612;-2.416;2022-10-30T13:09:39;7.63;;;2.15;;
15177;SDS011;7689;53.612;-2.416;2022-10-30T13:12:16;5.25;;;2.22;;
15177;SDS011;7689;53.612;-2.416;2022-10-30T13:14:53;5.03;;;2.25;;
15177;SDS011;7689;53.612;-2.416;2022-10-30T13:17:34;6.43;;;2.28;;
15177;SDS011;7689;53.612;-2.416;2022-10-30T13:19:59;4.38;;;1.90;;
15177;SDS011;7689;53.612;-2.416;2022-10-30T13:24:59;5.22;;;1.58;;
15177;SDS011;7689;53.612;-2.416;2022-10-30T13:30:19;6.32;;;2.10;;
15177;SDS011;7689;53.612;-2.416;2022-10-30T13:38:34;4.18;;;2.22;;
15177;SDS011;7689;53.612;-2.416;2022-10-30T13:43:49;3.92;;;1.88;;
15177;SDS011;7689;53.612;-2.416;2022-10-30T13:55:04;2.45;;;1.25;;
15177;SDS011;7689;53.612;-2.416;2022-10-30T13:58:05;1.73;;;1.33;;
15177;SDS011;7689;53.612;-2.416;2022-10-30T14:00:54;2.75;;;1.55;;
15177;SDS011;7689;53.612;-2.416;2022-10-30T14:09:05;0.88;;;0.88;;
15177;SDS011;7689;53.612;-2.416;2022-10-30T14:11:37;2.72;;;1.10;;
15177;SDS011;7689;53.612;-2.416;2022-10-30T14:14:04;1.83;;;1.10;;
15177;SDS011;7689;53.612;-2.416;2022-10-30T14:22:28;2.55;;;1.23;;
15177;SDS011;7689;53.612;-2.416;2022-10-30T14:24:54;1.10;;;0.95;;
15177;SDS011;7689;53.612;-2.416;2022-10-30T14:27:20;1.73;;;1.10;;
15177;SDS011;7689;53.612;-2.416;2022-10-30T14:29:59;0.90;;;0.88;;
15177;SDS011;7689;53.612;-2.416;2022-10-30T14:39:47;3.50;;;1.67;;
15177;SDS011;7689;53.612;-2.416;2022-10-30T14:45:12;10.60;;;1.67;;
15177;SDS011;7689;53.612;-2.416;2022-10-30T14:47:57;2.20;;;1.27;;
15177;SDS011;7689;53.612;-2.416;2022-10-30T15:01:43;2.17;;;1.20;;
15177;SDS011;7689;53.612;-2.416;2022-10-30T15:04:23;1.95;;;1.20;;
15177;SDS011;7689;53.612;-2.416;2022-10-30T15:07:07;1.95;;;1.13;;
15177;SDS011;7689;53.612;-2.416;2022-10-30T15:15:16;2.40;;;1.30;;
15177;SDS011;7689;53.612;-2.416;2022-10-30T15:17:46;1.88;;;1.10;;
15177;SDS011;7689;53.612;-2.416;2022-10-30T15:20:19;5.22;;;1.20;;
15177;SDS011;7689;53.612;-2.416;2022-10-30T15:22:59;1.90;;;1.25;;
15177;SDS011;7689;53.612;-2.416;2022-10-30T15:25:50;2.50;;;1.30;;
15177;SDS011;7689;53.612;-2.416;2022-10-30T15:28:17;1.25;;;1.15;;
15177;SDS011;7689;53.612;-2.416;2022-10-30T15:33:44;2.17;;;1.35;;
15177;SDS011;7689;53.612;-2.416;2022-10-30T15:36:32;2.00;;;1.80;;
15177;SDS011;7689;53.612;-2.416;2022-10-30T15:42:08;5.40;;;1.63;;
15177;SDS011;7689;53.612;-2.416;2022-10-30T15:44:32;2.55;;;1.40;;
15177;SDS011;7689;53.612;-2.416;2022-10-30T15:47:02;4.55;;;1.58;;
15177;SDS011;7689;53.612;-2.416;2022-10-30T15:49:29;4.95;;;2.08;;
15177;SDS011;7689;53.612;-2.416;2022-10-30T15:51:56;4.75;;;1.80;;
15177;SDS011;7689;53.612;-2.416;2022-10-30T15:54:24;3.67;;;1.70;;
15177;SDS011;7689;53.612;-2.416;2022-10-30T15:56:52;2.42;;;1.58;;
15177;SDS011;7689;53.612;-2.416;2022-10-30T15:59:22;2.45;;;1.25;;
15177;SDS011;7689;53.612;-2.416;2022-10-30T16:01:56;6.15;;;1.95;;
15177;SDS011;7689;53.612;-2.416;2022-10-30T16:06:58;3.85;;;1.35;;
15177;SDS011;7689;53.612;-2.416;2022-10-30T16:09:26;3.92;;;1.80;;
15177;SDS011;7689;53.612;-2.416;2022-10-30T16:11:56;3.80;;;1.55;;
15177;SDS011;7689;53.612;-2.416;2022-10-30T16:14:24;2.53;;;1.52;;
15177;SDS011;7689;53.612;-2.416;2022-10-30T16:16:53;6.80;;;1.50;;
15177;SDS011;7689;53.612;-2.416;2022-10-30T16:19:24;3.55;;;1.67;;
15177;SDS011;7689;53.612;-2.416;2022-10-30T16:21:51;8.98;;;1.88;;
15177;SDS011;7689;53.612;-2.416;2022-10-30T16:24:18;3.47;;;1.50;;
15177;SDS011;7689;53.612;-2.416;2022-10-30T16:29:48;4.50;;;1.60;;
15177;SDS011;7689;53.612;-2.416;2022-10-30T16:32:19;4.90;;;1.73;;
15177;SDS011;7689;53.612;-2.416;2022-10-30T16:34:47;4.72;;;1.98;;
15177;SDS011;7689;53.612;-2.416;2022-10-30T16:39:43;3.03;;;1.50;;
15177;SDS011;7689;53.612;-2.416;2022-10-30T16:42:18;4.53;;;1.80;;
15177;SDS011;7689;53.612;-2.416;2022-10-30T16:44:45;5.05;;;1.65;;
15177;SDS011;7689;53.612;-2.416;2022-10-30T16:49:41;3.67;;;1.70;;
15177;SDS011;7689;53.612;-2.416;2022-10-30T16:52:20;2.67;;;2.03;;
15177;SDS011;7689;53.612;-2.416;2022-10-30T16:54:58;5.80;;;1.80;;
15177;SDS011;7689;53.612;-2.416;2022-10-30T16:57:28;3.63;;;1.83;;
15177;SDS011;7689;53.612;-2.416;2022-10-30T16:59:57;1.98;;;1.77;;
15177;SDS011;7689;53.612;-2.416;2022-10-30T17:02:25;3.43;;;1.90;;
15177;SDS011;7689;53.612;-2.416;2022-10-30T17:05:07;3.92;;;1.70;;
15177;SDS011;7689;53.612;-2.416;2022-10-30T17:08:43;5.33;;;2.13;;
15177;SDS011;7689;53.612;-2.416;2022-10-30T17:10:41;3.65;;;2.30;;
15177;SDS011;7689;53.612;-2.416;2022-10-30T17:13:34;6.27;;;2.23;;
15177;SDS011;7689;53.612;-2.416;2022-10-30T17:16:15;7.60;;;2.37;;
15177;SDS011;7689;53.612;-2.416;2022-10-30T17:18:45;5.28;;;1.98;;
15177;SDS011;7689;53.612;-2.416;2022-10-30T17:21:11;6.30;;;2.10;;
15177;SDS011;7689;53.612;-2.416;2022-10-30T17:23:48;5.83;;;2.47;;
15177;SDS011;7689;53.612;-2.416;2022-10-30T17:26:16;7.80;;;2.17;;
15177;SDS011;7689;53.612;-2.416;2022-10-30T17:28:43;7.37;;;2.73;;